TimeCST,TemperatureF,Dew PointF,Humidity,Sea Level PressureIn,VisibilityMPH,Wind Direction,Wind SpeedMPH,Gust SpeedMPH,PrecipitationIn,Events,Conditions,WindDirDegrees,DateUTC
12:56 AM,28.9,12.0,49,29.91,10.0,South,17.3,25.3,N/A,,Clear,190,2012-12-12 06:56:00
1:56 AM,30.0,12.9,49,29.90,10.0,South,17.3,-,N/A,,Clear,190,2012-12-12 07:56:00
2:56 AM,30.0,12.9,49,29.89,10.0,South,19.6,-,N/A,,Clear,190,2012-12-12 08:56:00
3:56 AM,30.0,14.0,51,29.88,10.0,South,21.9,29.9,N/A,,Clear,190,2012-12-12 09:56:00
4:56 AM,28.9,14.0,54,29.88,10.0,South,18.4,26.5,N/A,,Clear,190,2012-12-12 10:56:00
5:56 AM,28.9,14.0,54,29.88,10.0,South,19.6,-,N/A,,Clear,190,2012-12-12 11:56:00
6:56 AM,28.0,14.0,56,29.90,10.0,South,19.6,-,N/A,,Clear,190,2012-12-12 12:56:00
7:56 AM,28.0,12.9,53,29.90,10.0,South,21.9,-,N/A,,Clear,190,2012-12-12 13:56:00
8:56 AM,30.9,12.9,47,29.89,10.0,South,25.3,33.4,N/A,,Clear,190,2012-12-12 14:56:00
9:56 AM,36.0,12.9,39,29.89,-9999.0,SSW,21.9,34.5,N/A,,Clear,200,2012-12-12 15:56:00
10:56 AM,41.0,14.0,33,29.90,10.0,South,23.0,29.9,N/A,,Clear,190,2012-12-12 16:56:00
11:56 AM,45.0,12.9,27,29.87,10.0,South,20.7,33.4,N/A,,Clear,190,2012-12-12 17:56:00
12:56 PM,48.0,12.9,24,29.84,10.0,South,23.0,32.2,N/A,,Clear,180,2012-12-12 18:56:00
1:56 PM,52.0,14.0,22,29.83,10.0,South,25.3,33.4,N/A,,Clear,190,2012-12-12 19:56:00
3:56 PM,51.1,12.9,22,29.83,10.0,South,24.2,31.1,N/A,,Clear,190,2012-12-12 21:56:00
4:56 PM,48.0,14.0,26,29.83,10.0,South,20.7,-,N/A,,Clear,190,2012-12-12 22:56:00
5:56 PM,46.0,15.1,29,29.86,10.0,South,19.6,26.5,N/A,,Clear,180,2012-12-12 23:56:00
6:56 PM,45.0,14.0,29,29.86,10.0,South,16.1,21.9,N/A,,Clear,180,2012-12-13 00:56:00
7:56 PM,43.0,14.0,31,29.88,10.0,South,21.9,28.8,N/A,,Clear,190,2012-12-13 01:56:00
8:56 PM,41.0,14.0,33,29.89,10.0,South,13.8,20.7,N/A,,Clear,180,2012-12-13 02:56:00
9:56 PM,39.9,15.1,36,29.90,10.0,South,16.1,25.3,N/A,,Clear,190,2012-12-13 03:56:00
10:56 PM,39.0,15.1,38,29.91,10.0,South,6.9,-,N/A,,Clear,190,2012-12-13 04:56:00
11:56 PM,37.9,15.1,39,29.89,10.0,South,9.2,-,N/A,,Clear,190,2012-12-13 05:56:00